Time;durP1;ratioP1;P1;durP2;ratioP2;P2;SDS_P1;SDS_P2;PMS_P1;PMS_P2;Temp;Humidity;BMP_temperature;BMP_pressure;BME280_temperature;BME280_humidity;BME280_pressure;Samples;Min_cycle;Max_cycle;Signal;HPM_P1;HPM_P2
2021/05/21 00:02:52;;;;;;;6.80;6.20;;;;;;;13.72;56.90;100896.97;6078067;29;20331;-48
2021/05/21 00:06:12;;;;;;;6.33;5.57;;;;;;;13.57;57.03;100899.03;6069742;29;20587;-49
2021/05/21 00:09:33;;;;;;;7.80;6.30;;;;;;;13.20;58.04;100889.25;6092880;29;20244;-48
2021/05/21 00:12:54;;;;;;;6.17;5.57;;;;;;;13.46;57.82;100895.75;6109211;28;20239;-49
2021/05/21 00:16:15;;;;;;;9.93;7.43;;;;;;;13.55;57.60;100879.88;6110644;28;20240;-50
2021/05/21 00:19:35;;;;;;;8.60;6.43;;;;;;;13.53;57.52;100868.59;6091301;29;20256;-55
2021/05/21 00:22:56;;;;;;;7.17;6.47;;;;;;;13.52;57.83;100855.53;6107330;29;20236;-46
2021/05/21 00:26:16;;;;;;;8.43;7.60;;;;;;;13.18;59.12;100858.75;6112519;28;20608;-50
2021/05/21 00:29:37;;;;;;;7.50;6.83;;;;;;;12.76;60.32;100851.69;6109264;29;20251;-51
2021/05/21 00:32:58;;;;;;;8.80;7.90;;;;;;;13.31;59.04;100835.91;6106324;29;20236;-49
2021/05/21 00:36:18;;;;;;;7.90;7.20;;;;;;;13.36;58.85;100826.22;6106138;29;20260;-46
2021/05/21 00:39:39;;;;;;;8.30;7.50;;;;;;;12.70;61.28;100830.91;6108561;29;20244;-47
2021/05/21 00:42:59;;;;;;;9.33;8.33;;;;;;;12.84;61.26;100822.81;6110439;29;20223;-49
2021/05/21 00:46:20;;;;;;;10.00;7.53;;;;;;;13.04;60.35;100814.59;6105801;28;20232;-51
2021/05/21 00:49:40;;;;;;;8.40;7.53;;;;;;;12.74;61.62;100809.06;6104507;28;20478;-49
2021/05/21 00:53:04;;;;;;;10.00;7.83;;;;;;;12.17;63.37;100806.53;6109741;29;20243;-50
2021/05/21 00:56:25;;;;;;;7.80;7.10;;;;;;;12.73;61.85;100793.41;6110043;28;20630;-48
2021/05/21 00:59:45;;;;;;;8.73;7.93;;;;;;;13.45;59.62;100792.00;6110185;28;20235;-50
2021/05/21 01:03:07;;;;;;;9.50;8.50;;;;;;;13.19;60.63;100792.50;6098800;29;20392;-51
2021/05/21 01:06:27;;;;;;;8.20;7.47;;;;;;;13.03;60.70;100776.28;6100407;29;20239;-49
2021/05/21 01:09:47;;;;;;;9.47;8.20;;;;;;;13.02;60.57;100778.91;6103103;29;20319;-52
2021/05/21 01:13:08;;;;;;;10.43;7.00;;;;;;;12.74;60.75;100763.78;6114700;29;20240;-50
2021/05/21 01:16:28;;;;;;;8.60;7.00;;;;;;;12.39;61.98;100763.53;6109658;28;20239;-49
2021/05/21 01:19:50;;;;;;;8.43;7.37;;;;;;;12.30;61.97;100763.66;6105478;29;20236;-53
2021/05/21 01:23:12;;;;;;;8.87;8.00;;;;;;;12.47;61.43;100752.09;6113327;28;20235;-48
2021/05/21 01:26:33;;;;;;;15.20;9.93;;;;;;;12.18;62.44;100749.06;6113324;29;20811;-51
2021/05/21 01:29:53;;;;;;;7.73;7.00;;;;;;;11.94;62.78;100734.69;6116952;29;20259;-46
2021/05/21 01:33:13;;;;;;;8.23;7.43;;;;;;;12.45;61.31;100730.34;6108108;29;20243;-51
2021/05/21 01:36:35;;;;;;;9.20;8.30;;;;;;;12.71;61.06;100716.78;6104392;29;20259;-44
2021/05/21 01:39:56;;;;;;;10.60;8.17;;;;;;;12.67;60.69;100704.69;6110722;28;20237;-47
2021/05/21 01:43:17;;;;;;;9.20;8.37;;;;;;;12.47;61.69;100692.00;6114436;28;20240;-50
2021/05/21 01:46:38;;;;;;;8.83;7.83;;;;;;;11.91;63.97;100698.19;6109732;29;20227;-48
2021/05/21 01:50:00;;;;;;;8.60;7.70;;;;;;;12.04;63.27;100692.75;6115122;29;20236;-49
2021/05/21 01:53:20;;;;;;;8.97;8.17;;;;;;;12.70;61.04;100692.44;6115193;28;20236;-47
2021/05/21 01:56:43;;;;;;;7.93;7.33;;;;;;;12.58;61.50;100682.19;6106320;29;20610;-49
2021/05/21 02:00:04;;;;;;;9.70;8.73;;;;;;;12.93;60.30;100672.78;6112818;29;20235;-52
2021/05/21 02:03:34;;;;;;;8.83;8.00;;;;;;;12.24;62.60;100675.00;6112354;29;20236;-51
2021/05/21 02:06:55;;;;;;;9.47;8.47;;;;;;;12.51;61.63;100663.19;6104016;29;20240;-47
2021/05/21 02:10:16;;;;;;;9.70;8.67;;;;;;;12.30;62.18;100659.22;6107195;29;20236;-51
2021/05/21 02:13:37;;;;;;;9.47;8.57;;;;;;;11.85;63.64;100656.53;6116536;28;20263;-51
2021/05/21 02:16:57;;;;;;;11.73;10.00;;;;;;;12.28;63.02;100637.50;6113561;29;20236;-47
2021/05/21 02:20:18;;;;;;;8.03;7.23;;;;;;;12.32;62.48;100633.94;6114289;29;20243;-48
2021/05/21 02:23:39;;;;;;;8.63;7.83;;;;;;;12.48;61.99;100631.03;6110597;28;20346;-48
2021/05/21 02:26:59;;;;;;;8.37;7.57;;;;;;;11.77;64.69;100629.69;6104781;28;20325;-51
2021/05/21 02:30:21;;;;;;;11.17;8.73;;;;;;;11.79;64.58;100620.94;6115146;28;20232;-46
2021/05/21 02:33:42;;;;;;;8.27;7.57;;;;;;;11.61;65.34;100622.13;6105885;28;20232;-49
2021/05/21 02:37:03;;;;;;;10.07;8.87;;;;;;;11.87;65.03;100602.56;6108810;28;20236;-48
2021/05/21 02:40:23;;;;;;;10.30;9.30;;;;;;;11.87;64.90;100596.50;6111037;29;20232;-52
2021/05/21 02:43:43;;;;;;;8.60;7.80;;;;;;;11.83;65.14;100596.53;6108334;28;20232;-49
2021/05/21 02:47:05;;;;;;;8.47;7.57;;;;;;;11.57;66.25;100594.38;6105454;29;20310;-49
2021/05/21 02:50:26;;;;;;;7.43;6.80;;;;;;;11.60;65.69;100578.66;6115649;29;20516;-46
2021/05/21 02:53:46;;;;;;;9.83;7.93;;;;;;;11.75;65.41;100576.69;6113665;29;20743;-51
2021/05/21 02:57:06;;;;;;;9.00;7.97;;;;;;;11.67;65.58;100570.72;6108663;29;20263;-49
2021/05/21 03:00:26;;;;;;;13.20;8.70;;;;;;;11.59;65.98;100571.75;6109291;28;20235;-51
2021/05/21 03:03:48;;;;;;;9.23;8.23;;;;;;;11.41;66.58;100561.59;6103946;29;20649;-53
2021/05/21 03:07:08;;;;;;;9.03;8.23;;;;;;;11.64;65.80;100558.59;6095752;29;20232;-48
2021/05/21 03:10:29;;;;;;;7.50;6.80;;;;;;;11.87;65.48;100550.38;6114505;28;20350;-51
2021/05/21 03:13:49;;;;;;;8.50;7.70;;;;;;;11.68;65.87;100546.38;6105197;28;20236;-51
2021/05/21 03:17:09;;;;;;;9.30;8.40;;;;;;;11.37;66.33;100544.28;6102595;29;20259;-52
2021/05/21 03:20:31;;;;;;;8.40;7.57;;;;;;;12.04;64.16;100541.38;6085609;29;20236;-49
2021/05/21 03:23:51;;;;;;;10.00;8.20;;;;;;;11.33;66.70;100538.25;6097804;29;20553;-46
2021/05/21 03:27:12;;;;;;;8.83;7.93;;;;;;;11.42;66.33;100527.69;6093221;28;20307;-48
2021/05/21 03:30:33;;;;;;;10.30;9.20;;;;;;;11.25;66.92;100529.72;6111994;29;20239;-53
2021/05/21 03:33:54;;;;;;;9.50;8.60;;;;;;;11.46;66.10;100520.69;6115117;28;20228;-49
2021/05/21 03:37:15;;;;;;;10.77;8.73;;;;;;;11.50;66.12;100514.53;6114229;28;20327;-48
2021/05/21 03:40:37;;;;;;;8.73;8.00;;;;;;;11.31;66.40;100513.97;6114747;29;20248;-48
2021/05/21 03:43:57;;;;;;;8.77;7.87;;;;;;;11.41;66.25;100501.63;6113938;28;20272;-47
2021/05/21 03:47:19;;;;;;;7.93;7.23;;;;;;;11.75;64.86;100495.81;6113068;28;20653;-54
2021/05/21 03:50:39;;;;;;;7.50;6.90;;;;;;;11.71;65.33;100489.81;6115477;29;20236;-52
2021/05/21 03:54:00;;;;;;;9.77;8.87;;;;;;;11.16;66.31;100488.16;6114624;29;20227;-53
2021/05/21 03:57:21;;;;;;;9.37;8.47;;;;;;;11.70;65.19;100479.38;6107646;28;20232;-50
2021/05/21 04:00:42;;;;;;;9.50;8.60;;;;;;;11.72;64.93;100468.03;6112864;28;20236;-48
2021/05/21 04:04:03;;;;;;;12.23;8.03;;;;;;;11.39;66.18;100469.50;6108705;29;20240;-49
2021/05/21 04:07:24;;;;;;;8.73;7.63;;;;;;;10.99;67.13;100475.41;6113547;28;20255;-53
2021/05/21 04:10:45;;;;;;;8.50;7.67;;;;;;;11.20;67.01;100463.75;6107955;28;20279;-48
2021/05/21 04:14:07;;;;;;;9.57;8.67;;;;;;;11.32;66.39;100460.06;6108088;29;20653;-51
2021/05/21 04:17:27;;;;;;;7.60;6.90;;;;;;;11.58;65.38;100460.47;6102489;29;20231;-48
2021/05/21 04:20:48;;;;;;;8.97;7.27;;;;;;;11.22;66.21;100448.94;6115393;29;20236;-53
2021/05/21 04:24:09;;;;;;;8.67;7.50;;;;;;;11.57;65.49;100437.91;6104044;29;20233;-51
2021/05/21 04:27:31;;;;;;;10.20;7.53;;;;;;;11.75;64.85;100435.81;6107279;29;20346;-50
2021/05/21 04:30:52;;;;;;;14.73;10.00;;;;;;;11.55;65.76;100416.19;6089721;29;20263;-49
2021/05/21 04:34:12;;;;;;;8.90;8.13;;;;;;;11.48;65.34;100419.81;6089704;29;20244;-47
2021/05/21 04:37:33;;;;;;;9.33;8.43;;;;;;;11.41;66.04;100411.22;6104851;29;21086;-47
2021/05/21 04:40:53;;;;;;;7.87;7.23;;;;;;;11.27;66.52;100425.44;6105342;29;20223;-49
2021/05/21 04:44:15;;;;;;;7.53;6.80;;;;;;;11.55;65.31;100426.59;6092772;29;20252;-50
2021/05/21 04:47:36;;;;;;;7.70;6.90;;;;;;;11.46;65.57;100424.19;6093321;29;20251;-48
2021/05/21 04:50:57;;;;;;;9.40;7.70;;;;;;;11.35;66.40;100410.50;6113036;29;20284;-49
2021/05/21 04:54:19;;;;;;;8.93;8.03;;;;;;;12.02;64.24;100409.19;6104596;29;20228;-51
2021/05/21 04:57:39;;;;;;;9.67;8.00;;;;;;;12.41;62.83;100401.34;6107697;29;20656;-49
2021/05/21 05:01:01;;;;;;;7.90;6.70;;;;;;;12.26;62.78;100399.09;6102557;28;20236;-51
2021/05/21 05:04:22;;;;;;;8.13;7.33;;;;;;;12.24;62.72;100392.19;6106011;29;20335;-50
2021/05/21 05:07:42;;;;;;;8.30;5.77;;;;;;;11.90;63.22;100388.53;6109195;29;20259;-53
2021/05/21 05:11:03;;;;;;;8.00;7.23;;;;;;;11.59;64.49;100389.19;6115505;29;20232;-49
2021/05/21 05:14:23;;;;;;;7.13;6.40;;;;;;;12.16;63.17;100379.31;6106019;29;20236;-51
2021/05/21 05:17:47;;;;;;;11.50;8.40;;;;;;;12.30;62.64;100371.16;6115227;29;20653;-49
2021/05/21 05:21:08;;;;;;;5.90;5.30;;;;;;;11.75;63.83;100374.06;6104187;29;20547;-52
2021/05/21 05:24:33;;;;;;;7.27;6.43;;;;;;;12.07;63.08;100369.06;6102964;29;20280;-51
2021/05/21 05:27:55;;;;;;;6.73;6.13;;;;;;;12.16;63.20;100361.03;6108186;29;20618;-48
2021/05/21 05:31:16;;;;;;;7.00;6.33;;;;;;;12.04;62.82;100356.06;6110608;28;20240;-49
2021/05/21 05:34:37;;;;;;;6.57;5.97;;;;;;;12.10;63.20;100350.75;6111165;29;20331;-49
2021/05/21 05:37:57;;;;;;;9.03;6.73;;;;;;;12.62;61.67;100341.66;6112516;29;20231;-52
2021/05/21 05:41:18;;;;;;;5.93;5.40;;;;;;;12.70;61.41;100344.94;6111383;28;20247;-51
2021/05/21 05:44:39;;;;;;;5.77;4.90;;;;;;;12.64;61.48;100334.66;6109615;29;20255;-51
2021/05/21 05:48:00;;;;;;;4.97;4.57;;;;;;;12.46;61.82;100335.09;6112527;29;20633;-53
2021/05/21 05:51:22;;;;;;;11.87;6.13;;;;;;;12.24;62.65;100329.53;6103820;29;20236;-53
2021/05/21 05:54:43;;;;;;;5.00;4.60;;;;;;;12.35;62.14;100317.09;6110481;28;20839;-47
2021/05/21 05:58:03;;;;;;;5.30;4.83;;;;;;;12.26;62.72;100323.38;6115666;28;20243;-49
2021/05/21 06:01:23;;;;;;;6.20;5.63;;;;;;;12.05;63.29;100318.66;6110783;29;20260;-51
2021/05/21 06:04:43;;;;;;;6.07;5.30;;;;;;;12.46;62.24;100308.97;6114383;29;21023;-51
2021/05/21 06:08:07;;;;;;;6.57;4.90;;;;;;;12.69;61.75;100303.16;6114999;28;20406;-53
2021/05/21 06:11:28;;;;;;;6.03;4.80;;;;;;;12.35;62.53;100297.06;6109734;29;20500;-50
2021/05/21 06:14:48;;;;;;;6.43;5.37;;;;;;;12.74;62.03;100299.53;6110860;29;20693;-46
2021/05/21 06:18:09;;;;;;;8.13;4.63;;;;;;;12.87;61.37;100300.09;6114340;29;20243;-46
2021/05/21 06:21:30;;;;;;;5.90;4.67;;;;;;;13.19;60.87;100296.56;6115805;28;20241;-48
2021/05/21 06:24:52;;;;;;;5.27;4.57;;;;;;;13.65;59.42;100289.19;6098529;28;20243;-46
2021/05/21 06:28:16;;;;;;;4.90;4.40;;;;;;;13.78;58.91;100279.19;6090397;29;20240;-49
2021/05/21 06:31:37;;;;;;;7.70;4.60;;;;;;;13.23;60.33;100286.03;6087436;29;20328;-48
2021/05/21 06:34:58;;;;;;;5.03;3.73;;;;;;;13.29;60.21;100284.09;6082085;29;20236;-51
2021/05/21 06:38:19;;;;;;;4.67;4.03;;;;;;;13.30;60.41;100282.34;6088815;29;20718;-49
2021/05/21 06:41:41;;;;;;;5.67;4.30;;;;;;;13.54;59.92;100275.56;6103660;28;20236;-50
2021/05/21 06:45:01;;;;;;;6.30;3.77;;;;;;;13.65;59.79;100273.50;6106144;28;20240;-46
2021/05/21 06:48:26;;;;;;;4.20;3.87;;;;;;;13.63;59.72;100275.28;6107460;29;20232;-48
2021/05/21 06:51:47;;;;;;;5.83;3.83;;;;;;;14.74;57.00;100266.47;6109118;29;20231;-48
2021/05/21 06:55:08;;;;;;;4.20;3.70;;;;;;;14.30;57.78;100260.97;6109771;28;20609;-54
2021/05/21 06:58:30;;;;;;;4.87;3.30;;;;;;;14.17;58.26;100258.75;6105395;29;20324;-48
2021/05/21 07:01:51;;;;;;;4.23;3.43;;;;;;;14.13;58.36;100253.66;6103110;29;20227;-49
2021/05/21 07:05:13;;;;;;;3.83;2.80;;;;;;;14.31;57.28;100250.44;6101086;28;20228;-50
2021/05/21 07:08:34;;;;;;;4.93;3.27;;;;;;;14.81;56.25;100251.38;6106447;28;20295;-50
2021/05/21 07:11:54;;;;;;;3.17;2.87;;;;;;;14.62;56.25;100245.94;6107419;29;20315;-48
2021/05/21 07:15:16;;;;;;;3.70;2.07;;;;;;;15.28;54.67;100241.78;6101364;28;20236;-46
2021/05/21 07:18:36;;;;;;;6.07;2.40;;;;;;;14.92;55.02;100236.13;6105643;28;20314;-45
2021/05/21 07:21:56;;;;;;;4.40;2.70;;;;;;;15.67;53.26;100230.66;6096514;29;20346;-50
2021/05/21 07:25:17;;;;;;;2.03;1.70;;;;;;;15.08;52.46;100229.44;6107872;29;20542;-49
2021/05/21 07:28:37;;;;;;;2.77;1.40;;;;;;;15.18;51.94;100231.69;6099929;29;20235;-47
2021/05/21 07:31:58;;;;;;;6.03;1.50;;;;;;;15.20;51.56;100224.63;6104675;29;20285;-46
2021/05/21 07:35:19;;;;;;;1.90;1.30;;;;;;;15.24;51.44;100223.63;6105827;28;20323;-48
2021/05/21 07:38:39;;;;;;;2.20;1.70;;;;;;;14.84;51.89;100223.31;6103016;28;20236;-47
2021/05/21 07:41:59;;;;;;;3.17;1.83;;;;;;;15.46;50.64;100214.00;6111298;28;20701;-46
2021/05/21 07:45:20;;;;;;;6.23;2.20;;;;;;;15.67;50.09;100211.44;6096237;29;20415;-46
2021/05/21 07:48:41;;;;;;;3.17;1.90;;;;;;;15.19;51.00;100207.19;6094226;29;20247;-51
2021/05/21 07:52:02;;;;;;;3.07;1.63;;;;;;;15.25;50.92;100210.41;6108427;29;20239;-49
2021/05/21 07:55:22;;;;;;;3.60;1.40;;;;;;;15.06;51.59;100188.41;6110598;28;20231;-47
2021/05/21 07:58:43;;;;;;;3.83;2.20;;;;;;;15.75;49.98;100181.38;6106768;28;20240;-51
2021/05/21 08:02:03;;;;;;;3.20;1.73;;;;;;;15.27;51.19;100192.00;6105833;28;20240;-50
2021/05/21 08:05:24;;;;;;;4.43;2.30;;;;;;;14.80;52.07;100187.63;6105659;29;20236;-51
2021/05/21 08:08:45;;;;;;;4.47;3.10;;;;;;;15.09;51.67;100172.59;6106555;28;20480;-48
2021/05/21 08:12:07;;;;;;;2.43;1.83;;;;;;;14.63;53.53;100209.19;6095487;29;20637;-53
2021/05/21 08:15:27;;;;;;;5.43;2.27;;;;;;;14.36;54.54;100196.13;6106959;28;20549;-52
2021/05/21 08:18:48;;;;;;;1.97;1.73;;;;;;;14.19;56.25;100206.34;6111306;28;20348;-48
2021/05/21 08:22:09;;;;;;;5.77;2.90;;;;;;;14.09;58.19;100246.81;6094868;29;20240;-54
2021/05/21 08:25:30;;;;;;;3.50;3.17;;;;;;;13.03;64.25;100266.53;6089204;29;20490;-51
2021/05/21 08:28:50;;;;;;;3.20;2.27;;;;;;;12.38;68.19;100270.00;6106661;28;20562;-51
2021/05/21 08:32:11;;;;;;;4.07;2.10;;;;;;;12.10;67.09;100288.94;6101674;28;20615;-51
2021/05/21 08:35:31;;;;;;;3.30;1.80;;;;;;;12.59;62.72;100284.25;6094924;29;20240;-51
2021/05/21 08:38:53;;;;;;;4.60;1.33;;;;;;;12.41;63.90;100286.44;6106020;29;20630;-54
2021/05/21 08:42:16;;;;;;;1.63;1.17;;;;;;;12.59;63.64;100284.25;6103538;29;20251;-49
2021/05/21 08:45:38;;;;;;;4.03;1.97;;;;;;;12.83;62.96;100271.44;6084552;28;20641;-52
2021/05/21 08:48:59;;;;;;;2.53;1.37;;;;;;;13.23;62.18;100260.75;6103482;29;20618;-49
2021/05/21 08:52:19;;;;;;;3.40;1.50;;;;;;;13.40;61.64;100252.44;6105747;28;20368;-49
2021/05/21 08:55:41;;;;;;;3.47;1.47;;;;;;;13.75;61.36;100250.50;6102314;29;20235;-47
2021/05/21 08:59:01;;;;;;;4.50;1.73;;;;;;;13.47;61.74;100259.19;6106835;29;20248;-53
2021/05/21 09:02:24;;;;;;;3.87;2.00;;;;;;;13.03;62.90;100258.69;6102597;29;20231;-53
2021/05/21 09:06:01;;;;;;;4.40;1.80;;;;;;;13.08;61.52;100255.94;6094751;29;20312;-48
2021/05/21 09:09:23;;;;;;;6.43;2.10;;;;;;;13.08;62.77;100248.94;6092951;29;20232;-53
2021/05/21 09:12:46;;;;;;;4.90;2.10;;;;;;;13.16;61.97;100253.97;6102174;29;20714;-47
2021/05/21 09:16:23;;;;;;;5.47;2.80;;;;;;;13.90;61.01;100236.94;6106520;29;20235;-50
2021/05/21 09:19:46;;;;;;;2.53;2.20;;;;;;;13.40;62.19;100241.97;6108311;29;20425;-50
2021/05/21 09:23:08;;;;;;;6.70;2.90;;;;;;;14.03;57.84;100232.16;6105235;29;20263;-47
2021/05/21 09:26:39;;;;;;;9.23;2.53;;;;;;;14.60;56.25;100222.44;6107686;29;20223;-54
2021/05/21 09:30:03;;;;;;;5.97;2.30;;;;;;;15.07;56.82;100221.63;6097975;29;20255;-50
2021/05/21 09:33:34;;;;;;;4.67;1.87;;;;;;;14.02;57.39;100222.59;6097778;28;20228;-52
2021/05/21 09:36:54;;;;;;;6.10;1.90;;;;;;;14.35;57.05;100209.28;6091697;29;20242;-49
2021/05/21 09:40:17;;;;;;;7.20;2.80;;;;;;;15.22;55.11;100217.53;6093803;29;20552;-50
2021/05/21 09:43:38;;;;;;;11.93;2.83;;;;;;;14.70;54.65;100217.72;6095960;29;20227;-48
2021/05/21 09:46:59;;;;;;;13.27;2.47;;;;;;;15.20;53.55;100201.88;6094183;29;20235;-50
2021/05/21 09:50:28;;;;;;;8.20;3.37;;;;;;;15.70;52.70;100185.94;6090294;28;20252;-49
2021/05/21 09:53:59;;;;;;;6.70;2.67;;;;;;;15.44;53.12;100176.47;6097198;28;20468;-46
2021/05/21 09:57:29;;;;;;;7.40;2.60;;;;;;;16.19;50.65;100175.19;6068262;29;20236;-52
2021/05/21 10:01:07;;;;;;;9.27;2.73;;;;;;;14.82;52.80;100183.19;6098104;29;20240;-49
2021/05/21 10:04:29;;;;;;;6.43;2.13;;;;;;;15.31;51.39;100172.59;6112492;29;20228;-51
2021/05/21 10:07:52;;;;;;;7.87;2.07;;;;;;;15.14;48.33;100182.00;6099576;29;20236;-50
2021/05/21 10:11:14;;;;;;;6.40;2.57;;;;;;;15.57;47.71;100153.22;6104159;28;20724;-51
2021/05/21 10:14:34;;;;;;;5.53;1.90;;;;;;;15.32;48.44;100153.34;6098102;28;20250;-53
2021/05/21 10:17:57;;;;;;;6.80;2.90;;;;;;;15.36;45.52;100160.19;6079360;28;20240;-50
2021/05/21 10:21:20;;;;;;;7.80;2.90;;;;;;;15.93;44.82;100148.25;6116376;28;20236;-50
2021/05/21 10:24:44;;;;;;;12.07;3.00;;;;;;;15.39;42.50;100160.03;6080028;28;20349;-45
2021/05/21 10:28:07;;;;;;;5.03;2.67;;;;;;;15.61;42.65;100165.31;6096996;29;20764;-47
2021/05/21 10:31:27;;;;;;;7.83;1.90;;;;;;;15.85;42.00;100168.72;6100621;28;20591;-50
2021/05/21 10:34:49;;;;;;;3.60;1.70;;;;;;;16.32;40.45;100149.25;6096460;28;20248;-53
2021/05/21 10:38:29;;;;;;;9.13;2.30;;;;;;;16.58;41.19;100152.53;6107909;29;20256;-48
2021/05/21 10:42:21;;;;;;;6.00;2.20;;;;;;;15.51;43.52;100151.69;6106001;29;20227;-49
2021/05/21 10:46:14;;;;;;;7.37;2.57;;;;;;;15.96;43.57;100149.06;6089651;28;20417;-54
2021/05/21 10:49:35;;;;;;;7.07;2.27;;;;;;;16.36;43.28;100158.69;6104095;29;20247;-52
2021/05/21 10:53:01;;;;;;;8.10;2.33;;;;;;;16.47;42.65;100147.72;6106737;28;20232;-49
2021/05/21 10:56:43;;;;;;;6.93;2.40;;;;;;;16.08;42.94;100165.13;6105059;29;20232;-51
2021/05/21 11:00:07;;;;;;;6.20;2.30;;;;;;;16.40;41.55;100138.41;6097690;29;20320;-50
2021/05/21 11:03:29;;;;;;;4.67;2.20;;;;;;;17.06;40.44;100149.47;6101240;28;20336;-53
2021/05/21 11:06:52;;;;;;;8.27;1.87;;;;;;;16.69;41.43;100134.47;6110647;28;20553;-54
2021/05/21 11:10:26;;;;;;;6.47;2.40;;;;;;;16.74;40.53;100135.97;6100749;29;20223;-50
2021/05/21 11:14:03;;;;;;;6.27;2.83;;;;;;;16.25;42.35;100145.19;6101459;29;21466;-49
2021/05/21 11:17:25;;;;;;;6.33;1.50;;;;;;;16.34;41.98;100156.16;6098856;29;20235;-53
2021/05/21 11:20:54;;;;;;;6.67;2.20;;;;;;;16.57;40.97;100135.88;6091249;29;20240;-49
2021/05/21 11:24:14;;;;;;;9.23;3.83;;;;;;;16.83;40.99;100139.16;6096763;29;20259;-52
2021/05/21 11:27:36;;;;;;;6.50;2.13;;;;;;;16.22;42.12;100133.03;6088956;28;20264;-53
2021/05/21 11:30:57;;;;;;;5.57;1.80;;;;;;;16.38;42.44;100142.88;6103255;28;20232;-49
2021/05/21 11:34:19;;;;;;;3.60;1.70;;;;;;;15.95;44.10;100142.94;6110246;28;20239;-51
2021/05/21 11:37:41;;;;;;;6.97;2.27;;;;;;;16.00;43.68;100145.38;6088563;28;20263;-50
2021/05/21 11:41:02;;;;;;;6.43;1.90;;;;;;;16.02;44.34;100128.63;6089759;29;20239;-51
2021/05/21 11:44:26;;;;;;;5.90;2.63;;;;;;;15.64;44.18;100140.69;6088820;29;20225;-54
2021/05/21 11:47:47;;;;;;;4.90;2.27;;;;;;;15.76;44.32;100142.88;6098684;29;20228;-52
2021/05/21 11:51:14;;;;;;;5.57;2.50;;;;;;;15.09;45.61;100147.22;6092876;29;20622;-49
2021/05/21 11:54:40;;;;;;;3.07;1.67;;;;;;;15.25;45.73;100155.34;6094335;28;20562;-48
2021/05/21 11:58:00;;;;;;;7.13;2.77;;;;;;;15.49;46.11;100150.91;6085280;29;20493;-49
2021/05/21 12:01:21;;;;;;;3.53;1.90;;;;;;;15.11;47.29;100155.03;6097514;28;20327;-49
2021/05/21 12:04:44;;;;;;;3.73;2.43;;;;;;;15.04;48.22;100157.00;6097913;28;20568;-54
2021/05/21 12:08:05;;;;;;;5.43;1.50;;;;;;;14.42;48.96;100170.63;6094955;28;22487;-53
2021/05/21 12:11:26;;;;;;;4.97;1.63;;;;;;;14.57;48.64;100168.34;6095456;29;20227;-46
2021/05/21 12:14:46;;;;;;;4.13;1.80;;;;;;;14.92;48.25;100154.84;6084984;29;20236;-51
2021/05/21 12:18:07;;;;;;;4.33;1.87;;;;;;;15.16;48.44;100153.09;6098441;28;21177;-51
2021/05/21 12:21:31;;;;;;;6.80;1.87;;;;;;;14.59;51.15;100170.91;6092787;28;20240;-47
2021/05/21 12:24:52;;;;;;;2.97;1.80;;;;;;;14.68;49.88;100140.91;6067683;29;20465;-53
2021/05/21 12:28:13;;;;;;;4.37;2.30;;;;;;;15.11;48.63;100132.28;6066684;29;20583;-47
2021/05/21 12:31:36;;;;;;;7.67;2.33;;;;;;;15.75;46.95;100114.91;6084618;29;20862;-48
2021/05/21 12:34:57;;;;;;;4.47;1.80;;;;;;;15.29;47.82;100120.19;6091517;29;20327;-49
2021/05/21 12:38:23;;;;;;;3.83;2.77;;;;;;;15.16;47.42;100117.22;6088460;29;20241;-52
2021/05/21 12:41:43;;;;;;;4.13;1.70;;;;;;;16.06;45.37;100116.22;6101400;28;20235;-50
2021/05/21 12:45:08;;;;;;;4.40;1.90;;;;;;;16.49;44.95;100098.56;6105210;29;20243;-52
2021/05/21 12:48:51;;;;;;;6.53;2.47;;;;;;;16.54;45.37;100080.84;6097167;29;20232;-50
2021/05/21 12:52:12;;;;;;;3.37;1.53;;;;;;;17.35;43.72;100101.63;6091476;29;20794;-47
2021/05/21 12:55:46;;;;;;;4.17;1.80;;;;;;;20.35;37.23;100090.59;6086911;29;20255;-53
2021/05/21 12:59:08;;;;;;;4.13;2.20;;;;;;;21.20;34.69;100080.84;6105016;28;20391;-47
2021/05/21 13:02:29;;;;;;;4.00;2.00;;;;;;;18.83;37.35;100087.88;6106122;28;20227;-47
2021/05/21 13:05:54;;;;;;;5.73;2.40;;;;;;;20.15;35.63;100092.66;6108969;29;20235;-51
2021/05/21 13:09:17;;;;;;;7.22;1.85;;;;;;;19.80;36.47;100087.69;6119145;28;20236;-51
2021/05/21 13:12:40;;;;;;;5.38;1.80;;;;;;;20.41;34.84;100079.63;6104197;28;20239;-52
2021/05/21 13:16:01;;;;;;;3.88;1.65;;;;;;;19.12;36.78;100090.69;6114738;29;20240;-51
2021/05/21 13:19:23;;;;;;;3.85;1.55;;;;;;;20.09;34.31;100087.75;6112227;29;20322;-51
2021/05/21 13:22:46;;;;;;;4.03;1.83;;;;;;;19.25;35.74;100089.06;6083889;29;20328;-50
2021/05/21 13:26:07;;;;;;;5.57;2.20;;;;;;;19.63;36.71;100079.88;6094693;29;20251;-52
2021/05/21 13:29:28;;;;;;;8.77;2.03;;;;;;;19.35;35.68;100099.09;6113199;28;20236;-52
2021/05/21 13:32:49;;;;;;;7.85;2.33;;;;;;;17.69;39.44;100108.72;6113838;28;20241;-51
2021/05/21 13:36:10;;;;;;;8.73;2.20;;;;;;;16.64;41.74;100118.91;6112441;29;20318;-52
2021/05/21 13:39:30;;;;;;;3.13;1.20;;;;;;;16.82;41.83;100122.50;6110761;29;20389;-48
2021/05/21 13:42:51;;;;;;;8.57;2.70;;;;;;;18.66;38.02;100104.59;6087497;29;20588;-51
2021/05/21 13:46:12;;;;;;;3.43;1.73;;;;;;;19.56;36.09;100094.38;6089373;29;20679;-51
2021/05/21 13:49:32;;;;;;;4.67;1.43;;;;;;;18.55;36.77;100104.31;6123506;28;20619;-49
2021/05/21 13:52:53;;;;;;;6.43;2.28;;;;;;;17.47;37.45;100107.16;6122532;28;20235;-54
2021/05/21 13:56:13;;;;;;;6.30;2.07;;;;;;;17.47;37.14;100101.03;6113408;28;20232;-52
2021/05/21 13:59:34;;;;;;;5.47;1.67;;;;;;;17.18;38.48;100115.63;6117977;28;20232;-52
2021/05/21 14:02:55;;;;;;;8.00;2.13;;;;;;;16.77;39.86;100132.38;6108546;28;20227;-51
2021/05/21 14:06:16;;;;;;;8.33;2.00;;;;;;;15.83;42.53;100164.47;6104661;29;20254;-48
2021/05/21 14:09:36;;;;;;;15.43;2.77;;;;;;;14.69;45.67;100195.88;6111094;28;20229;-50
2021/05/21 14:13:03;;;;;;;8.30;2.37;;;;;;;15.13;45.26;100143.56;6103812;28;20233;-51
2021/05/21 14:16:33;;;;;;;7.10;1.20;;;;;;;14.58;45.07;100182.31;6112072;28;20231;-50
2021/05/21 14:19:57;;;;;;;6.67;1.20;;;;;;;14.65;44.97;100169.84;6118203;29;20267;-52
2021/05/21 14:23:18;;;;;;;5.40;1.70;;;;;;;15.13;42.89;100154.03;6111373;28;20638;-54
2021/05/21 14:26:40;;;;;;;3.60;0.80;;;;;;;14.57;43.62;100154.38;6106944;28;20602;-52
2021/05/21 14:30:01;;;;;;;2.27;0.93;;;;;;;15.76;41.58;100153.38;6091939;29;20240;-53
2021/05/21 14:33:25;;;;;;;4.73;1.00;;;;;;;16.28;40.64;100134.53;6094385;28;20232;-51
2021/05/21 14:36:47;;;;;;;5.60;1.77;;;;;;;16.48;39.71;100131.06;6103333;28;20240;-50
2021/05/21 14:40:09;;;;;;;5.63;1.23;;;;;;;16.07;39.74;100124.06;6094073;29;20623;-47
2021/05/21 14:43:30;;;;;;;4.30;1.03;;;;;;;15.65;40.92;100139.78;6110322;29;20236;-50
2021/05/21 14:46:50;;;;;;;2.33;1.10;;;;;;;16.42;39.70;100137.44;6123618;28;20236;-54
2021/05/21 14:50:13;;;;;;;0.90;0.60;;;;;;;16.20;39.30;100140.13;6115110;28;20389;-50
2021/05/21 14:53:34;;;;;;;1.47;0.90;;;;;;;16.70;38.14;100138.81;6099988;29;20323;-54
2021/05/21 14:56:55;;;;;;;4.00;0.80;;;;;;;16.38;39.37;100134.97;6100748;28;20232;-51
2021/05/21 15:00:16;;;;;;;1.47;1.00;;;;;;;15.94;40.68;100128.97;6107403;29;20236;-51
2021/05/21 15:03:36;;;;;;;4.40;1.40;;;;;;;15.98;41.12;100121.81;6095228;28;20239;-49
2021/05/21 15:06:57;;;;;;;2.43;1.00;;;;;;;16.91;39.82;100124.72;6098441;28;20239;-52
2021/05/21 15:10:20;;;;;;;3.73;1.77;;;;;;;16.71;40.27;100111.59;6111741;28;20239;-47
2021/05/21 15:13:43;;;;;;;4.07;1.13;;;;;;;17.62;38.81;100109.94;6108147;29;20239;-48
2021/05/21 15:17:08;;;;;;;3.60;1.77;;;;;;;17.48;38.95;100114.09;6104049;28;20236;-54
2021/05/21 15:24:20;;;;;;;6.20;1.53;;;;;;;16.70;39.54;100131.78;6095059;29;20240;-49
2021/05/21 15:27:41;;;;;;;6.37;1.10;;;;;;;17.54;38.93;100127.91;6077039;28;20569;-51
2021/05/21 15:31:06;;;;;;;5.33;1.40;;;;;;;16.50;39.94;100129.22;6119198;28;20231;-52
2021/05/21 15:34:28;;;;;;;2.33;0.87;;;;;;;16.33;40.78;100146.56;6102058;29;20231;-51
2021/05/21 15:37:49;;;;;;;6.63;1.73;;;;;;;16.53;41.15;100129.88;6102992;28;20625;-49
2021/05/21 15:41:13;;;;;;;4.37;1.40;;;;;;;16.82;40.82;100119.88;6104128;29;20318;-51
2021/05/21 15:48:12;;;;;;;5.50;1.60;;;;;;;16.47;42.08;100124.06;6110267;28;20701;-48